Amherst, NY

12:01 AM EDT on September 15, 2014 (GMT -0400)
Transit and Renaissance Williamsville, NY | Change Station
CLOSE
Current Station
Personal Weather Station
Location: Buffalo, NY
Elevation: 610 ft
Nearby Weather Stations

Elev 610 ft 42.99 °N, 78.70 °W | Updated 35 seconds ago

Mostly Cloudy
Mostly Cloudy
50.7 °F
Feels Like 50.7 °F
N
0.0
Wind Variable Wind from WNW
Gusts 0.0 mph

Today
High -- | Low -- °F
--% Chance of Precip.
Yesterday
High -- | Low -- °F
Precip. -- in
6:54 AM 7:24 PM
Waning Gibbous, 59% visible
Pressure 30.22 in
Visibility 10.0 miles
Clouds Mostly Cloudy 5500 ft
Dew Point 48 °F
Humidity 91%
Rainfall 0.00 in
Snow Depth Not available.
UV 0 out of 12
Pollen 4.10 out of 12
PM2.5 Good
Flu Activity Not available.
METAR KBUF 150354Z 13004KT 10SM BKN055 12/07 A3022 RMK AO2 SLP234 T01220072

More Conditions Fewer Conditions

Pressure 30.22 in
Visibility 10.0 miles
Clouds Mostly Cloudy 5500 ft
Dew Point 48 °F
Humidity 91%
Rainfall 0.00 in
Snow Depth Not available.
UV 0 out of 12
Pollen 4.10 out of 12
PM2.5 Good
Flu Activity Not available.
METAR KBUF 150354Z 13004KT 10SM BKN055 12/07 A3022 RMK AO2 SLP234 T01220072

More Conditions Fewer Conditions

10-Day Weather Forecast

Almanac

Astronomy

Sep. 15, 2014 Rise Set
Actual Time 6:54 AM EDT 7:24 PM EDT
Civil Twilight 6:25 AM EDT 7:53 PM EDT
Nautical Twilight 5:52 AM EDT 8:26 PM EDT
Astronomical Twilight 5:17 AM EDT 9:01 PM EDT
Moon 11:57 PM EDT 2:02 PM EDT
Length of Visible Light 13h 27m
Length of Day
12h 30m
Tomorrow will be 2m 54s shorter.
Waning Gibbous, 59% of the Moon is Illuminated
Today
Waning Gibbous
Sep 15
Last Quarter
Sep 24
New
Oct 1
First Quarter
Oct 8
Full

Yesterday's Extremes

State Highs State Lows

Community

WunderPhotos

Upload Photos

1,753,398 photos uploaded!

Nearby

Air Quality

  Air Quality AQ Index Pollutant
Yesterday Good
OZONE
Yesterday Good
PM2.5
Current Good
PM2.5
Sunday Good
OZONE
Sunday Good
PM2.5
Monday Good
OZONE
Monday Good
PM2.5

Snow Depth

Station Depth Elevation
No new snow has been reported.

Earthquake Activity

City Distance Mag. Time & Date
No recent earthquake activity has been reported nearby.
Minimum magnitude displayed is 2.5.

Coastal Water Temperatures

Place Temperature
Buffalo, NY 69.1 °F

Nearby Weather Stations